METAR Data
IDs: Format: Raw Decoded Include TAF

Data at: 1344 UTC 10 Aug 2022

KSNS 101253Z 29003KT 5SM BR OVC003 16/14 A3004 RMK AO2 SLP182 T01610139
KSNS 101230Z 00000KT 3SM R31/5500VP6000FT BR OVC003 16/14 A3003 RMK AO2 T01610144
KSNS 101218Z 00000KT 1 3/4SM R31/6000VP6000FT BR OVC002 16/14 A3003 RMK AO2 T01610144
KSNS 101153Z AUTO 35005KT 4SM BR OVC002 17/14 A3003 RMK AO2 SLP178 T01670144 10194 20161 53001 TSNO
KSNS 101126Z AUTO 35006KT 3SM BR OVC002 17/14 A3003 RMK AO2 T01670144 TSNO
KSNS 101119Z AUTO 34006KT 2 1/2SM BR OVC002 17/14 A3003 RMK AO2 VIS 1 3/4V4 T01670144 TSNO
KSNS 101110Z AUTO 34007KT 3SM BR BKN002 17/14 A3003 RMK AO2 T01670144 TSNO
KSNS 101056Z AUTO 35006KT 2SM BR BKN002 17/14 A3003 RMK AO2 T01670144 TSNO
KSNS 101053Z AUTO 35006KT 3SM HZ SCT002 17/14 A3003 RMK AO2 SLP177 T01670139 TSNO
KSNS 100953Z AUTO 34005KT 10SM CLR 18/13 A3003 RMK AO2 SLP177 T01780133 TSNO
KSNS 100853Z AUTO 34004KT 10SM CLR 18/13 A3003 RMK AO2 SLP177 T01780133 50000 TSNO
KSNS 100753Z AUTO 35004KT 10SM CLR 18/14 A3004 RMK AO2 SLP180 T01830139 402560167 TSNO
KSNS 100653Z AUTO 31007KT 10SM CLR 19/14 A3003 RMK AO2 SLP179 T01890139 TSNO
KSNS 100553Z AUTO 30004KT 10SM CLR 19/14 A3003 RMK AO2 SLP177 T01940139 10233 20194 53007 TSNO
KSNS 100453Z AUTO 00000KT 10SM CLR 20/14 A3002 RMK AO2 SLP176 T02000139 TSNO
KSNS 100353Z AUTO 30004KT 10SM CLR 20/14 A3001 RMK AO2 SLP172 T02000139 TSNO
KSNS 100253Z AUTO 29008KT 10SM CLR 21/13 A3001 RMK AO2 SLP170 T02110133 53007 TSNO
KSNS 100153Z 28010KT 10SM CLR 22/14 A2999 RMK AO2 SLP166 T02170139
KSNS 100053Z COR 29010G21KT 10SM CLR 23/13 A3000 RMK AO2 SLP167 T02280133
KSNS 100026Z 30011KT 10SM FEW002 23/13 A2999 RMK AO2 T02330133
KSNS 092353Z 30014KT 10SM CLR 23/13 A2999 RMK AO2 SLP163 T02330133 10256 20233 55003
KSNS 092253Z 30015KT 10SM CLR 24/13 A2998 RMK AO2 SLP162 T02440128
KSNS 092153Z 31013KT 10SM CLR 24/13 A2999 RMK AO2 SLP164 T02440128
KSNS 092053Z 30014KT 10SM CLR 24/13 A3000 RMK AO2 SLP166 T02440133 55001
KSNS 091953Z 29012G19KT 10SM CLR 25/13 A3000 RMK AO2 SLP166 T02500133
KSNS 091853Z 28009KT 10SM CLR 26/14 A3000 RMK AO2 SLP166 T02560139
KSNS 091753Z 32009KT 10SM CLR 24/14 A3000 RMK AO2 SLP167 T02390139 10239 20167 58002
KSNS 091653Z 32005KT 10SM CLR 22/14 A3000 RMK AO2 SLP169 T02170144
KSNS 091553Z 32006KT 10SM FEW014 19/14 A3001 RMK AO2 SLP171 T01890139
KSNS 091453Z 33005KT 10SM CLR 18/13 A3001 RMK AO2 SLP170 T01830133 53011
KSNS 091353Z 31007KT 10SM CLR 17/13 A2999 RMK AO2 SLP163 T01720133
KSNS 091053Z AUTO 30006KT 10SM CLR 17/13 A2997 RMK AO2 SLP157 T01720133 TSNO
KSNS 090953Z AUTO 29008KT 10SM CLR 17/13 A2996 RMK AO2 SLP155 T01720133 TSNO
KSNS 090910Z AUTO 28007KT 10SM SCT007 SCT012 17/14 A2997 RMK AO2 T01720139 TSNO
KSNS 090903Z AUTO 28007KT 10SM BKN007 BKN012 18/14 A2997 RMK AO2 T01780139 TSNO
KSNS 090853Z AUTO 28005KT 10SM SCT007 17/14 A2997 RMK AO2 SLP158 T01720139 53005 TSNO
KSNS 090840Z AUTO 27010KT 10SM SCT008 17/14 A2997 RMK AO2 T01720139 TSNO
KSNS 090753Z AUTO 34008KT 10SM CLR 18/14 A2997 RMK AO2 SLP156 T01830139 402560156 TSNO
KSNS 090653Z AUTO 35008KT 10SM CLR 19/13 A2996 RMK AO2 SLP155 T01890133 TSNO
KSNS 090553Z AUTO 35010KT 10SM CLR 19/13 A2996 RMK AO2 SLP153 T01940133 10239 20194 50000 TSNO
KSNS 090453Z AUTO 33009KT 10SM CLR 19/13 A2997 RMK AO2 SLP156 T01940133 TSNO
KSNS 090353Z AUTO 28009KT 10SM CLR 20/13 A2996 RMK AO2 SLP154 T02000133 TSNO
KSNS 090253Z AUTO 29009KT 10SM CLR 21/13 A2996 RMK AO2 SLP153 T02060133 51001 TSNO
KSNS 090153Z AUTO 27012KT 10SM CLR 22/13 A2995 RMK AO2 SLP152 T02170128 TSNO